sensor_id;sensor_type;location;lat;lon;timestamp;temperature;humidity
2767;DHT22;1391;46.74287300;11.63683300;2023-08-08T00:00:10;10.50;84.60
2767;DHT22;1391;46.74287300;11.63683300;2023-08-08T00:02:39;10.40;89.10
2767;DHT22;1391;46.74287300;11.63683300;2023-08-08T00:05:07;10.60;91.20
2767;DHT22;1391;46.74287300;11.63683300;2023-08-08T00:07:38;10.50;90.80
2767;DHT22;1391;46.74287300;11.63683300;2023-08-08T00:10:06;10.40;85.00
2767;DHT22;1391;46.74287300;11.63683300;2023-08-08T00:12:35;10.40;76.80
2767;DHT22;1391;46.74287300;11.63683300;2023-08-08T00:15:03;10.20;82.10
2767;DHT22;1391;46.74287300;11.63683300;2023-08-08T00:17:31;10.30;86.90
2767;DHT22;1391;46.74287300;11.63683300;2023-08-08T00:19:58;10.50;79.40
2767;DHT22;1391;46.74287300;11.63683300;2023-08-08T00:22:26;10.40;81.30
2767;DHT22;1391;46.74287300;11.63683300;2023-08-08T00:24:53;10.20;86.60
2767;DHT22;1391;46.74287300;11.63683300;2023-08-08T00:27:20;9.90;91.10
2767;DHT22;1391;46.74287300;11.63683300;2023-08-08T00:29:49;10.10;92.40
2767;DHT22;1391;46.74287300;11.63683300;2023-08-08T00:32:18;10.10;91.10
2767;DHT22;1391;46.74287300;11.63683300;2023-08-08T00:34:46;10.10;91.50
2767;DHT22;1391;46.74287300;11.63683300;2023-08-08T00:37:13;10.00;91.30
2767;DHT22;1391;46.74287300;11.63683300;2023-08-08T00:39:41;9.70;92.90
2767;DHT22;1391;46.74287300;11.63683300;2023-08-08T00:42:11;9.50;95.50
2767;DHT22;1391;46.74287300;11.63683300;2023-08-08T00:44:39;9.70;90.50
2767;DHT22;1391;46.74287300;11.63683300;2023-08-08T00:47:09;9.60;88.80
2767;DHT22;1391;46.74287300;11.63683300;2023-08-08T00:49:37;9.60;85.90
2767;DHT22;1391;46.74287300;11.63683300;2023-08-08T00:52:06;9.50;88.80
2767;DHT22;1391;46.74287300;11.63683300;2023-08-08T00:54:34;9.40;92.50
2767;DHT22;1391;46.74287300;11.63683300;2023-08-08T00:57:01;9.70;93.20
2767;DHT22;1391;46.74287300;11.63683300;2023-08-08T00:59:29;9.60;92.90
2767;DHT22;1391;46.74287300;11.63683300;2023-08-08T01:01:57;9.70;92.50
2767;DHT22;1391;46.74287300;11.63683300;2023-08-08T01:04:27;9.60;91.10
2767;DHT22;1391;46.74287300;11.63683300;2023-08-08T01:07:03;9.60;91.50
2767;DHT22;1391;46.74287300;11.63683300;2023-08-08T01:09:55;9.60;91.60
2767;DHT22;1391;46.74287300;11.63683300;2023-08-08T01:12:27;9.60;94.60
2767;DHT22;1391;46.74287300;11.63683300;2023-08-08T01:14:55;9.40;91.30
2767;DHT22;1391;46.74287300;11.63683300;2023-08-08T01:17:25;9.50;90.40
2767;DHT22;1391;46.74287300;11.63683300;2023-08-08T01:19:54;9.50;90.90
2767;DHT22;1391;46.74287300;11.63683300;2023-08-08T01:22:25;10.00;90.10
2767;DHT22;1391;46.74287300;11.63683300;2023-08-08T01:24:55;10.10;89.80
2767;DHT22;1391;46.74287300;11.63683300;2023-08-08T01:27:23;10.10;90.60
2767;DHT22;1391;46.74287300;11.63683300;2023-08-08T01:29:50;10.00;91.30
2767;DHT22;1391;46.74287300;11.63683300;2023-08-08T01:32:19;10.10;92.10
2767;DHT22;1391;46.74287300;11.63683300;2023-08-08T01:34:46;10.10;94.40
2767;DHT22;1391;46.74287300;11.63683300;2023-08-08T01:37:18;10.10;90.30
2767;DHT22;1391;46.74287300;11.63683300;2023-08-08T01:39:49;10.10;93.40
2767;DHT22;1391;46.74287300;11.63683300;2023-08-08T01:42:22;9.70;93.40
2767;DHT22;1391;46.74287300;11.63683300;2023-08-08T01:44:50;9.70;94.60
2767;DHT22;1391;46.74287300;11.63683300;2023-08-08T01:47:17;9.80;95.30
2767;DHT22;1391;46.74287300;11.63683300;2023-08-08T01:49:44;9.60;92.20
2767;DHT22;1391;46.74287300;11.63683300;2023-08-08T01:52:12;9.50;93.20
2767;DHT22;1391;46.74287300;11.63683300;2023-08-08T01:54:39;10.00;90.30
2767;DHT22;1391;46.74287300;11.63683300;2023-08-08T01:57:07;9.80;93.60
2767;DHT22;1391;46.74287300;11.63683300;2023-08-08T01:59:36;9.80;95.20
2767;DHT22;1391;46.74287300;11.63683300;2023-08-08T02:02:04;9.70;96.30
2767;DHT22;1391;46.74287300;11.63683300;2023-08-08T02:04:32;9.70;99.10
2767;DHT22;1391;46.74287300;11.63683300;2023-08-08T02:06:59;9.30;99.30
2767;DHT22;1391;46.74287300;11.63683300;2023-08-08T02:09:26;9.40;99.90
2767;DHT22;1391;46.74287300;11.63683300;2023-08-08T02:11:53;9.10;99.90
2767;DHT22;1391;46.74287300;11.63683300;2023-08-08T02:14:21;9.10;98.60
2767;DHT22;1391;46.74287300;11.63683300;2023-08-08T02:16:49;9.20;98.30
2767;DHT22;1391;46.74287300;11.63683300;2023-08-08T02:19:16;9.10;99.90
2767;DHT22;1391;46.74287300;11.63683300;2023-08-08T02:21:43;9.00;99.90
2767;DHT22;1391;46.74287300;11.63683300;2023-08-08T02:24:11;9.30;99.40
2767;DHT22;1391;46.74287300;11.63683300;2023-08-08T02:26:38;9.40;99.80
2767;DHT22;1391;46.74287300;11.63683300;2023-08-08T02:29:05;9.20;99.60
2767;DHT22;1391;46.74287300;11.63683300;2023-08-08T02:31:32;9.60;99.90
2767;DHT22;1391;46.74287300;11.63683300;2023-08-08T02:34:01;9.30;99.90
2767;DHT22;1391;46.74287300;11.63683300;2023-08-08T02:36:28;9.30;99.90
2767;DHT22;1391;46.74287300;11.63683300;2023-08-08T02:38:55;9.40;99.90
2767;DHT22;1391;46.74287300;11.63683300;2023-08-08T02:41:22;9.20;99.90
2767;DHT22;1391;46.74287300;11.63683300;2023-08-08T02:43:49;9.20;99.60
2767;DHT22;1391;46.74287300;11.63683300;2023-08-08T02:46:16;9.30;99.90
2767;DHT22;1391;46.74287300;11.63683300;2023-08-08T02:48:44;9.40;99.10
2767;DHT22;1391;46.74287300;11.63683300;2023-08-08T02:51:12;9.10;99.20
2767;DHT22;1391;46.74287300;11.63683300;2023-08-08T02:53:39;9.20;99.50
2767;DHT22;1391;46.74287300;11.63683300;2023-08-08T02:56:06;9.30;99.90
2767;DHT22;1391;46.74287300;11.63683300;2023-08-08T02:58:34;9.00;99.90
2767;DHT22;1391;46.74287300;11.63683300;2023-08-08T03:01:01;8.90;99.90
2767;DHT22;1391;46.74287300;11.63683300;2023-08-08T03:03:28;8.50;99.90
2767;DHT22;1391;46.74287300;11.63683300;2023-08-08T03:05:55;8.60;99.90
2767;DHT22;1391;46.74287300;11.63683300;2023-08-08T03:08:24;8.60;99.90
2767;DHT22;1391;46.74287300;11.63683300;2023-08-08T03:10:53;8.60;99.90
2767;DHT22;1391;46.74287300;11.63683300;2023-08-08T03:13:20;8.50;99.90
2767;DHT22;1391;46.74287300;11.63683300;2023-08-08T03:15:48;8.50;99.90
2767;DHT22;1391;46.74287300;11.63683300;2023-08-08T03:18:15;8.50;99.90
2767;DHT22;1391;46.74287300;11.63683300;2023-08-08T03:20:42;8.60;99.90
2767;DHT22;1391;46.74287300;11.63683300;2023-08-08T03:23:10;8.50;99.90
2767;DHT22;1391;46.74287300;11.63683300;2023-08-08T03:25:38;8.50;99.90
2767;DHT22;1391;46.74287300;11.63683300;2023-08-08T03:28:05;8.20;99.90
2767;DHT22;1391;46.74287300;11.63683300;2023-08-08T03:30:32;8.10;99.90
2767;DHT22;1391;46.74287300;11.63683300;2023-08-08T03:33:00;8.40;99.90
2767;DHT22;1391;46.74287300;11.63683300;2023-08-08T03:35:27;8.80;99.90
2767;DHT22;1391;46.74287300;11.63683300;2023-08-08T03:37:54;8.20;99.90
2767;DHT22;1391;46.74287300;11.63683300;2023-08-08T03:40:21;7.80;99.90
2767;DHT22;1391;46.74287300;11.63683300;2023-08-08T03:42:50;7.80;99.90
2767;DHT22;1391;46.74287300;11.63683300;2023-08-08T03:45:17;7.80;99.90
2767;DHT22;1391;46.74287300;11.63683300;2023-08-08T03:47:44;7.70;99.90
2767;DHT22;1391;46.74287300;11.63683300;2023-08-08T03:50:12;7.70;99.90
2767;DHT22;1391;46.74287300;11.63683300;2023-08-08T03:52:39;7.50;99.90
2767;DHT22;1391;46.74287300;11.63683300;2023-08-08T03:55:06;7.40;99.90
2767;DHT22;1391;46.74287300;11.63683300;2023-08-08T03:57:34;7.90;99.90
2767;DHT22;1391;46.74287300;11.63683300;2023-08-08T04:00:03;7.70;99.90
2767;DHT22;1391;46.74287300;11.63683300;2023-08-08T04:02:33;7.40;99.90
2767;DHT22;1391;46.74287300;11.63683300;2023-08-08T04:05:01;7.90;99.90
2767;DHT22;1391;46.74287300;11.63683300;2023-08-08T04:07:28;7.70;99.90
2767;DHT22;1391;46.74287300;11.63683300;2023-08-08T04:09:55;7.40;99.90
2767;DHT22;1391;46.74287300;11.63683300;2023-08-08T04:12:22;7.40;99.90
2767;DHT22;1391;46.74287300;11.63683300;2023-08-08T04:14:50;7.30;99.90
2767;DHT22;1391;46.74287300;11.63683300;2023-08-08T04:17:18;7.50;99.90
2767;DHT22;1391;46.74287300;11.63683300;2023-08-08T04:19:46;7.70;99.90
2767;DHT22;1391;46.74287300;11.63683300;2023-08-08T04:22:13;7.70;99.90
2767;DHT22;1391;46.74287300;11.63683300;2023-08-08T04:24:41;7.40;99.90
2767;DHT22;1391;46.74287300;11.63683300;2023-08-08T04:27:08;7.70;99.90
2767;DHT22;1391;46.74287300;11.63683300;2023-08-08T04:29:36;7.70;99.90
2767;DHT22;1391;46.74287300;11.63683300;2023-08-08T04:32:04;8.00;99.90
2767;DHT22;1391;46.74287300;11.63683300;2023-08-08T04:34:33;7.80;99.90
2767;DHT22;1391;46.74287300;11.63683300;2023-08-08T04:37:00;7.80;99.90
2767;DHT22;1391;46.74287300;11.63683300;2023-08-08T04:39:28;7.80;99.90
2767;DHT22;1391;46.74287300;11.63683300;2023-08-08T04:41:55;7.80;99.90
2767;DHT22;1391;46.74287300;11.63683300;2023-08-08T04:44:22;7.80;99.90
2767;DHT22;1391;46.74287300;11.63683300;2023-08-08T04:46:49;8.10;99.90
2767;DHT22;1391;46.74287300;11.63683300;2023-08-08T04:49:17;8.00;99.90
2767;DHT22;1391;46.74287300;11.63683300;2023-08-08T04:51:46;8.50;99.90
2767;DHT22;1391;46.74287300;11.63683300;2023-08-08T04:54:13;8.60;99.90
2767;DHT22;1391;46.74287300;11.63683300;2023-08-08T04:56:40;8.60;99.90
2767;DHT22;1391;46.74287300;11.63683300;2023-08-08T04:59:08;8.60;99.90
2767;DHT22;1391;46.74287300;11.63683300;2023-08-08T05:01:35;8.70;99.90
2767;DHT22;1391;46.74287300;11.63683300;2023-08-08T05:04:02;8.50;99.90
2767;DHT22;1391;46.74287300;11.63683300;2023-08-08T05:06:30;8.60;99.90
2767;DHT22;1391;46.74287300;11.63683300;2023-08-08T05:08:59;8.90;99.90
2767;DHT22;1391;46.74287300;11.63683300;2023-08-08T05:11:26;9.10;99.90
2767;DHT22;1391;46.74287300;11.63683300;2023-08-08T05:13:53;9.50;95.60
2767;DHT22;1391;46.74287300;11.63683300;2023-08-08T05:16:21;9.40;88.80
2767;DHT22;1391;46.74287300;11.63683300;2023-08-08T05:18:48;9.80;87.30
2767;DHT22;1391;46.74287300;11.63683300;2023-08-08T05:21:15;9.90;86.80
2767;DHT22;1391;46.74287300;11.63683300;2023-08-08T05:23:42;10.00;84.50
2767;DHT22;1391;46.74287300;11.63683300;2023-08-08T05:26:11;10.00;84.50
2767;DHT22;1391;46.74287300;11.63683300;2023-08-08T05:28:38;9.90;90.20
2767;DHT22;1391;46.74287300;11.63683300;2023-08-08T05:31:05;9.90;83.50
2767;DHT22;1391;46.74287300;11.63683300;2023-08-08T05:33:33;9.90;84.00
2767;DHT22;1391;46.74287300;11.63683300;2023-08-08T05:36:00;9.90;84.70
2767;DHT22;1391;46.74287300;11.63683300;2023-08-08T05:38:27;10.40;83.80
2767;DHT22;1391;46.74287300;11.63683300;2023-08-08T05:40:54;10.30;76.50
2767;DHT22;1391;46.74287300;11.63683300;2023-08-08T05:43:23;10.20;76.60
2767;DHT22;1391;46.74287300;11.63683300;2023-08-08T05:45:50;10.30;75.30
2767;DHT22;1391;46.74287300;11.63683300;2023-08-08T05:48:17;10.70;76.50
2767;DHT22;1391;46.74287300;11.63683300;2023-08-08T05:50:44;10.60;74.50
2767;DHT22;1391;46.74287300;11.63683300;2023-08-08T05:53:11;10.90;73.60
2767;DHT22;1391;46.74287300;11.63683300;2023-08-08T05:55:40;10.70;69.00
2767;DHT22;1391;46.74287300;11.63683300;2023-08-08T05:58:08;10.70;67.30
2767;DHT22;1391;46.74287300;11.63683300;2023-08-08T06:00:37;11.20;68.00
2767;DHT22;1391;46.74287300;11.63683300;2023-08-08T06:03:04;11.10;66.80
2767;DHT22;1391;46.74287300;11.63683300;2023-08-08T06:05:32;11.10;66.70
2767;DHT22;1391;46.74287300;11.63683300;2023-08-08T06:07:59;11.10;57.60
2767;DHT22;1391;46.74287300;11.63683300;2023-08-08T06:10:26;11.60;59.70
2767;DHT22;1391;46.74287300;11.63683300;2023-08-08T06:12:54;11.50;56.20
2767;DHT22;1391;46.74287300;11.63683300;2023-08-08T06:15:21;11.50;57.70
2767;DHT22;1391;46.74287300;11.63683300;2023-08-08T06:17:50;11.50;59.60
2767;DHT22;1391;46.74287300;11.63683300;2023-08-08T06:20:17;11.50;60.70
2767;DHT22;1391;46.74287300;11.63683300;2023-08-08T06:22:44;11.90;64.80
2767;DHT22;1391;46.74287300;11.63683300;2023-08-08T06:25:12;12.20;52.80
2767;DHT22;1391;46.74287300;11.63683300;2023-08-08T06:27:39;11.80;51.20
2767;DHT22;1391;46.74287300;11.63683300;2023-08-08T06:30:07;12.10;57.00
2767;DHT22;1391;46.74287300;11.63683300;2023-08-08T06:32:35;12.10;54.50
2767;DHT22;1391;46.74287300;11.63683300;2023-08-08T06:35:04;12.00;53.20
2767;DHT22;1391;46.74287300;11.63683300;2023-08-08T06:37:32;12.40;52.70
2767;DHT22;1391;46.74287300;11.63683300;2023-08-08T06:39:59;12.60;54.40
2767;DHT22;1391;46.74287300;11.63683300;2023-08-08T06:42:27;12.60;49.60
2767;DHT22;1391;46.74287300;11.63683300;2023-08-08T06:44:54;12.40;54.20
2767;DHT22;1391;46.74287300;11.63683300;2023-08-08T06:47:21;12.60;51.40
2767;DHT22;1391;46.74287300;11.63683300;2023-08-08T06:49:48;12.40;51.10
2767;DHT22;1391;46.74287300;11.63683300;2023-08-08T06:52:17;13.00;45.60
2767;DHT22;1391;46.74287300;11.63683300;2023-08-08T06:54:44;13.00;41.20
2767;DHT22;1391;46.74287300;11.63683300;2023-08-08T06:57:11;12.80;41.30
2767;DHT22;1391;46.74287300;11.63683300;2023-08-08T06:59:38;12.80;44.90
2767;DHT22;1391;46.74287300;11.63683300;2023-08-08T07:02:05;13.40;42.10
2767;DHT22;1391;46.74287300;11.63683300;2023-08-08T07:04:32;13.30;39.60
2767;DHT22;1391;46.74287300;11.63683300;2023-08-08T07:07:00;13.30;41.20
2767;DHT22;1391;46.74287300;11.63683300;2023-08-08T07:09:28;13.30;37.30
2767;DHT22;1391;46.74287300;11.63683300;2023-08-08T07:11:55;14.00;35.00
2767;DHT22;1391;46.74287300;11.63683300;2023-08-08T07:14:22;14.00;38.00
2767;DHT22;1391;46.74287300;11.63683300;2023-08-08T07:16:50;14.10;36.50
2767;DHT22;1391;46.74287300;11.63683300;2023-08-08T07:19:19;13.90;37.10
2767;DHT22;1391;46.74287300;11.63683300;2023-08-08T07:21:46;14.20;36.30
2767;DHT22;1391;46.74287300;11.63683300;2023-08-08T07:24:14;14.40;33.60
2767;DHT22;1391;46.74287300;11.63683300;2023-08-08T07:26:42;14.40;38.40
2767;DHT22;1391;46.74287300;11.63683300;2023-08-08T07:29:10;15.10;34.20
2767;DHT22;1391;46.74287300;11.63683300;2023-08-08T07:31:37;15.00;36.90
2767;DHT22;1391;46.74287300;11.63683300;2023-08-08T07:34:04;15.20;29.90
2767;DHT22;1391;46.74287300;11.63683300;2023-08-08T07:36:31;15.30;30.90
2767;DHT22;1391;46.74287300;11.63683300;2023-08-08T07:38:59;15.10;30.00
2767;DHT22;1391;46.74287300;11.63683300;2023-08-08T07:41:26;15.00;29.20
2767;DHT22;1391;46.74287300;11.63683300;2023-08-08T07:43:57;15.20;32.50
2767;DHT22;1391;46.74287300;11.63683300;2023-08-08T07:46:24;15.20;27.90
2767;DHT22;1391;46.74287300;11.63683300;2023-08-08T07:48:51;15.10;29.60
2767;DHT22;1391;46.74287300;11.63683300;2023-08-08T07:51:19;15.10;29.50
2767;DHT22;1391;46.74287300;11.63683300;2023-08-08T07:53:46;15.20;37.60
2767;DHT22;1391;46.74287300;11.63683300;2023-08-08T07:56:13;16.20;28.30
2767;DHT22;1391;46.74287300;11.63683300;2023-08-08T07:58:40;15.80;30.00
2767;DHT22;1391;46.74287300;11.63683300;2023-08-08T08:01:09;16.30;29.80
2767;DHT22;1391;46.74287300;11.63683300;2023-08-08T08:03:37;16.30;32.10
2767;DHT22;1391;46.74287300;11.63683300;2023-08-08T08:06:04;16.30;29.00
2767;DHT22;1391;46.74287300;11.63683300;2023-08-08T08:08:31;17.00;25.60
2767;DHT22;1391;46.74287300;11.63683300;2023-08-08T08:10:59;16.90;29.70
2767;DHT22;1391;46.74287300;11.63683300;2023-08-08T08:13:26;16.40;22.00
2767;DHT22;1391;46.74287300;11.63683300;2023-08-08T08:15:53;16.30;26.50
2767;DHT22;1391;46.74287300;11.63683300;2023-08-08T08:18:22;17.60;29.00
2767;DHT22;1391;46.74287300;11.63683300;2023-08-08T08:20:49;17.80;29.60
2767;DHT22;1391;46.74287300;11.63683300;2023-08-08T08:23:16;17.60;22.80
2767;DHT22;1391;46.74287300;11.63683300;2023-08-08T08:25:43;17.50;23.10
2767;DHT22;1391;46.74287300;11.63683300;2023-08-08T08:28:11;18.20;22.00
2767;DHT22;1391;46.74287300;11.63683300;2023-08-08T08:30:38;18.40;22.10
2767;DHT22;1391;46.74287300;11.63683300;2023-08-08T08:33:05;18.40;21.60
2767;DHT22;1391;46.74287300;11.63683300;2023-08-08T08:35:34;18.00;19.00
2767;DHT22;1391;46.74287300;11.63683300;2023-08-08T08:38:02;17.50;18.90
2767;DHT22;1391;46.74287300;11.63683300;2023-08-08T08:40:30;18.20;21.50
2767;DHT22;1391;46.74287300;11.63683300;2023-08-08T08:43:02;18.70;23.20
2767;DHT22;1391;46.74287300;11.63683300;2023-08-08T08:45:30;18.90;20.00
2767;DHT22;1391;46.74287300;11.63683300;2023-08-08T08:47:59;18.20;18.80
2767;DHT22;1391;46.74287300;11.63683300;2023-08-08T08:50:30;18.80;18.10
2767;DHT22;1391;46.74287300;11.63683300;2023-08-08T08:53:01;17.60;15.60
2767;DHT22;1391;46.74287300;11.63683300;2023-08-08T08:55:29;18.30;23.30
2767;DHT22;1391;46.74287300;11.63683300;2023-08-08T08:57:56;18.90;19.50
2767;DHT22;1391;46.74287300;11.63683300;2023-08-08T09:00:23;19.80;17.10
2767;DHT22;1391;46.74287300;11.63683300;2023-08-08T09:02:52;20.40;19.60
2767;DHT22;1391;46.74287300;11.63683300;2023-08-08T09:05:21;19.30;14.70
2767;DHT22;1391;46.74287300;11.63683300;2023-08-08T09:07:50;19.30;14.30
2767;DHT22;1391;46.74287300;11.63683300;2023-08-08T09:10:18;19.70;20.30
2767;DHT22;1391;46.74287300;11.63683300;2023-08-08T09:12:46;19.70;15.90
2767;DHT22;1391;46.74287300;11.63683300;2023-08-08T09:15:14;19.90;21.40
2767;DHT22;1391;46.74287300;11.63683300;2023-08-08T09:17:42;19.30;16.90
2767;DHT22;1391;46.74287300;11.63683300;2023-08-08T09:20:12;19.60;13.20
2767;DHT22;1391;46.74287300;11.63683300;2023-08-08T09:22:40;19.50;16.60
2767;DHT22;1391;46.74287300;11.63683300;2023-08-08T09:25:08;19.60;10.60
2767;DHT22;1391;46.74287300;11.63683300;2023-08-08T09:27:37;18.80;12.30
2767;DHT22;1391;46.74287300;11.63683300;2023-08-08T09:30:05;19.30;14.00
2767;DHT22;1391;46.74287300;11.63683300;2023-08-08T09:32:34;20.30;15.90
2767;DHT22;1391;46.74287300;11.63683300;2023-08-08T09:35:02;20.50;19.70
2767;DHT22;1391;46.74287300;11.63683300;2023-08-08T09:37:35;20.40;18.10
2767;DHT22;1391;46.74287300;11.63683300;2023-08-08T09:40:03;20.90;18.10
2767;DHT22;1391;46.74287300;11.63683300;2023-08-08T09:42:35;20.40;14.80
2767;DHT22;1391;46.74287300;11.63683300;2023-08-08T09:45:03;19.30;11.50
2767;DHT22;1391;46.74287300;11.63683300;2023-08-08T09:47:32;19.10;14.60
2767;DHT22;1391;46.74287300;11.63683300;2023-08-08T09:49:59;19.80;12.10
2767;DHT22;1391;46.74287300;11.63683300;2023-08-08T09:52:27;19.80;8.90
2767;DHT22;1391;46.74287300;11.63683300;2023-08-08T09:54:55;19.80;13.60
2767;DHT22;1391;46.74287300;11.63683300;2023-08-08T09:57:23;20.50;13.30
2767;DHT22;1391;46.74287300;11.63683300;2023-08-08T09:59:52;20.40;15.20
2767;DHT22;1391;46.74287300;11.63683300;2023-08-08T10:02:19;19.80;12.50
2767;DHT22;1391;46.74287300;11.63683300;2023-08-08T10:04:47;20.40;10.40
2767;DHT22;1391;46.74287300;11.63683300;2023-08-08T10:07:14;20.60;8.80
2767;DHT22;1391;46.74287300;11.63683300;2023-08-08T10:09:42;21.00;9.00
2767;DHT22;1391;46.74287300;11.63683300;2023-08-08T10:12:11;20.60;10.70
2767;DHT22;1391;46.74287300;11.63683300;2023-08-08T10:14:42;20.70;12.20
2767;DHT22;1391;46.74287300;11.63683300;2023-08-08T10:17:13;20.60;10.20
2767;DHT22;1391;46.74287300;11.63683300;2023-08-08T10:19:50;20.50;10.20
2767;DHT22;1391;46.74287300;11.63683300;2023-08-08T10:22:20;21.50;13.40
2767;DHT22;1391;46.74287300;11.63683300;2023-08-08T10:24:51;21.50;9.60
2767;DHT22;1391;46.74287300;11.63683300;2023-08-08T10:27:31;21.50;8.20
2767;DHT22;1391;46.74287300;11.63683300;2023-08-08T10:30:03;21.40;7.10
2767;DHT22;1391;46.74287300;11.63683300;2023-08-08T10:32:40;22.10;13.70
2767;DHT22;1391;46.74287300;11.63683300;2023-08-08T10:35:10;21.20;14.30
2767;DHT22;1391;46.74287300;11.63683300;2023-08-08T10:37:39;20.50;5.70
2767;DHT22;1391;46.74287300;11.63683300;2023-08-08T10:40:07;20.60;8.40
2767;DHT22;1391;46.74287300;11.63683300;2023-08-08T10:42:44;20.60;10.50
2767;DHT22;1391;46.74287300;11.63683300;2023-08-08T10:45:15;20.40;15.20
2767;DHT22;1391;46.74287300;11.63683300;2023-08-08T10:47:44;20.10;12.90
2767;DHT22;1391;46.74287300;11.63683300;2023-08-08T10:50:13;19.70;14.10
2767;DHT22;1391;46.74287300;11.63683300;2023-08-08T10:52:52;19.60;13.70
2767;DHT22;1391;46.74287300;11.63683300;2023-08-08T10:55:21;19.20;11.70
2767;DHT22;1391;46.74287300;11.63683300;2023-08-08T10:57:57;19.60;11.40
2767;DHT22;1391;46.74287300;11.63683300;2023-08-08T11:00:27;19.70;22.40
2767;DHT22;1391;46.74287300;11.63683300;2023-08-08T11:03:02;19.60;23.20
2767;DHT22;1391;46.74287300;11.63683300;2023-08-08T11:05:32;19.70;17.10
2767;DHT22;1391;46.74287300;11.63683300;2023-08-08T11:08:00;20.00;17.60
2767;DHT22;1391;46.74287300;11.63683300;2023-08-08T11:10:29;19.70;15.60
2767;DHT22;1391;46.74287300;11.63683300;2023-08-08T11:13:03;19.30;12.30
2767;DHT22;1391;46.74287300;11.63683300;2023-08-08T11:15:32;19.70;19.70
2767;DHT22;1391;46.74287300;11.63683300;2023-08-08T11:18:02;19.60;16.40
2767;DHT22;1391;46.74287300;11.63683300;2023-08-08T11:20:31;19.70;16.90
2767;DHT22;1391;46.74287300;11.63683300;2023-08-08T11:22:59;19.70;16.20
2767;DHT22;1391;46.74287300;11.63683300;2023-08-08T11:25:28;19.60;17.70
2767;DHT22;1391;46.74287300;11.63683300;2023-08-08T11:27:57;19.60;24.80
2767;DHT22;1391;46.74287300;11.63683300;2023-08-08T11:30:29;19.70;23.70
2767;DHT22;1391;46.74287300;11.63683300;2023-08-08T11:32:57;19.70;27.50
2767;DHT22;1391;46.74287300;11.63683300;2023-08-08T11:35:26;19.90;21.20
2767;DHT22;1391;46.74287300;11.63683300;2023-08-08T11:37:55;19.80;17.30
2767;DHT22;1391;46.74287300;11.63683300;2023-08-08T11:40:26;19.80;20.40
2767;DHT22;1391;46.74287300;11.63683300;2023-08-08T11:42:55;19.80;21.00
2767;DHT22;1391;46.74287300;11.63683300;2023-08-08T11:45:23;20.40;21.70
2767;DHT22;1391;46.74287300;11.63683300;2023-08-08T11:47:51;20.40;13.40
2767;DHT22;1391;46.74287300;11.63683300;2023-08-08T11:50:21;21.50;15.10
2767;DHT22;1391;46.74287300;11.63683300;2023-08-08T11:52:52;21.40;13.20
2767;DHT22;1391;46.74287300;11.63683300;2023-08-08T11:55:20;21.90;9.90
2767;DHT22;1391;46.74287300;11.63683300;2023-08-08T11:57:49;22.10;9.00
2767;DHT22;1391;46.74287300;11.63683300;2023-08-08T12:00:19;22.30;8.30
2767;DHT22;1391;46.74287300;11.63683300;2023-08-08T12:02:47;23.00;8.60
2767;DHT22;1391;46.74287300;11.63683300;2023-08-08T12:05:15;22.80;7.80
2767;DHT22;1391;46.74287300;11.63683300;2023-08-08T12:07:48;22.90;4.60
2767;DHT22;1391;46.74287300;11.63683300;2023-08-08T12:10:18;22.80;3.10
2767;DHT22;1391;46.74287300;11.63683300;2023-08-08T12:12:53;22.80;5.30
2767;DHT22;1391;46.74287300;11.63683300;2023-08-08T12:15:28;22.90;4.80
2767;DHT22;1391;46.74287300;11.63683300;2023-08-08T12:17:57;22.90;4.40
2767;DHT22;1391;46.74287300;11.63683300;2023-08-08T12:20:27;23.10;4.20
2767;DHT22;1391;46.74287300;11.63683300;2023-08-08T12:22:55;23.00;4.00
2767;DHT22;1391;46.74287300;11.63683300;2023-08-08T12:25:24;23.00;4.60
2767;DHT22;1391;46.74287300;11.63683300;2023-08-08T12:27:51;23.00;2.60
2767;DHT22;1391;46.74287300;11.63683300;2023-08-08T12:30:18;23.10;3.60
2767;DHT22;1391;46.74287300;11.63683300;2023-08-08T12:32:45;23.80;2.00
2767;DHT22;1391;46.74287300;11.63683300;2023-08-08T12:35:13;23.70;4.30
2767;DHT22;1391;46.74287300;11.63683300;2023-08-08T12:37:41;23.70;1.00
2767;DHT22;1391;46.74287300;11.63683300;2023-08-08T12:40:10;23.60;1.20
2767;DHT22;1391;46.74287300;11.63683300;2023-08-08T12:42:39;23.70;1.00
2767;DHT22;1391;46.74287300;11.63683300;2023-08-08T12:45:07;23.50;1.00
2767;DHT22;1391;46.74287300;11.63683300;2023-08-08T12:47:35;23.60;1.00
2767;DHT22;1391;46.74287300;11.63683300;2023-08-08T12:50:03;23.70;1.80
2767;DHT22;1391;46.74287300;11.63683300;2023-08-08T12:52:31;23.90;1.00
2767;DHT22;1391;46.74287300;11.63683300;2023-08-08T12:54:58;23.90;1.00
2767;DHT22;1391;46.74287300;11.63683300;2023-08-08T12:57:25;23.90;1.70
2767;DHT22;1391;46.74287300;11.63683300;2023-08-08T12:59:54;23.80;1.00
2767;DHT22;1391;46.74287300;11.63683300;2023-08-08T13:02:21;23.80;1.00
2767;DHT22;1391;46.74287300;11.63683300;2023-08-08T13:04:48;23.80;1.00
2767;DHT22;1391;46.74287300;11.63683300;2023-08-08T13:07:15;23.90;1.00
2767;DHT22;1391;46.74287300;11.63683300;2023-08-08T13:09:42;24.00;1.00
2767;DHT22;1391;46.74287300;11.63683300;2023-08-08T13:12:10;24.20;1.00
2767;DHT22;1391;46.74287300;11.63683300;2023-08-08T13:14:37;23.70;1.00
2767;DHT22;1391;46.74287300;11.63683300;2023-08-08T13:17:06;23.60;1.00
2767;DHT22;1391;46.74287300;11.63683300;2023-08-08T13:19:33;23.60;1.00
2767;DHT22;1391;46.74287300;11.63683300;2023-08-08T13:22:00;23.60;1.00
2767;DHT22;1391;46.74287300;11.63683300;2023-08-08T13:24:28;23.70;1.00
2767;DHT22;1391;46.74287300;11.63683300;2023-08-08T13:26:55;23.90;1.00
2767;DHT22;1391;46.74287300;11.63683300;2023-08-08T13:29:22;23.90;1.00
2767;DHT22;1391;46.74287300;11.63683300;2023-08-08T13:31:50;23.60;1.70
2767;DHT22;1391;46.74287300;11.63683300;2023-08-08T13:34:18;23.60;1.00
2767;DHT22;1391;46.74287300;11.63683300;2023-08-08T13:36:45;23.70;1.00
2767;DHT22;1391;46.74287300;11.63683300;2023-08-08T13:39:13;23.10;1.00
2767;DHT22;1391;46.74287300;11.63683300;2023-08-08T13:41:40;23.10;1.20
2767;DHT22;1391;46.74287300;11.63683300;2023-08-08T13:44:07;23.00;1.00